Time;durP1;ratioP1;P1;durP2;ratioP2;P2;SDS_P1;SDS_P2;PMS_P1;PMS_P2;Temp;Humidity;BMP_temperature;BMP_pressure;BME280_temperature;BME280_humidity;BME280_pressure;Samples;Min_cycle;Max_cycle;Signal;HPM_P1;HPM_P2
2022/11/17 00:00:48;;;;;;;18.90;15.32;;;;;;;6.91;100.00;99634.09;5014248;28;20061;-81
2022/11/17 00:03:16;;;;;;;21.48;16.58;;;;;;;6.88;100.00;99630.59;4988395;28;20045;-82
2022/11/17 00:05:45;;;;;;;23.77;19.35;;;;;;;6.86;100.00;99624.50;5025430;28;20754;-82
2022/11/17 00:08:13;;;;;;;20.67;16.95;;;;;;;6.83;100.00;99618.38;5028699;28;20458;-81
2022/11/17 00:10:41;;;;;;;17.60;14.27;;;;;;;6.80;100.00;99620.13;5016569;28;20049;-81
2022/11/17 00:15:57;;;;;;;13.90;10.25;;;;;;;6.75;100.00;99621.91;5011625;28;20109;-81
2022/11/17 00:21:18;;;;;;;13.20;9.90;;;;;;;6.70;100.00;99610.56;5018734;28;20045;-81
2022/11/17 00:23:47;;;;;;;15.15;9.90;;;;;;;6.68;100.00;99605.31;5016197;28;20049;-81
2022/11/17 00:26:26;;;;;;;10.05;9.00;;;;;;;6.62;100.00;99595.72;5012309;28;20068;-81
2022/11/17 00:28:58;;;;;;;14.63;11.82;;;;;;;6.61;100.00;99580.88;5046495;28;20147;-82
2022/11/17 00:34:20;;;;;;;14.77;11.98;;;;;;;6.61;100.00;99575.66;5003017;28;20053;-81
2022/11/17 00:36:52;;;;;;;;;;;;;;;6.58;100.00;99573.06;5017316;28;20038;-81
2022/11/17 00:39:22;;;;;;;13.90;8.65;;;;;;;6.59;100.00;99563.44;5026078;28;19921;-81
2022/11/17 00:41:50;;;;;;;12.37;8.53;;;;;;;6.58;100.00;99548.63;5026188;28;20061;-82
2022/11/17 00:44:19;;;;;;;10.75;8.43;;;;;;;6.58;100.00;99541.63;5029134;28;20553;-81
2022/11/17 00:46:48;;;;;;;12.90;10.05;;;;;;;6.58;100.00;99519.84;5020702;28;20050;-81
2022/11/17 00:49:18;;;;;;;13.48;9.05;;;;;;;6.58;100.00;99535.53;4998155;28;20064;-81
2022/11/17 00:51:47;;;;;;;12.27;9.05;;;;;;;6.55;100.00;99531.16;4993824;28;20533;-82
2022/11/17 00:54:15;;;;;;;11.60;8.80;;;;;;;6.52;100.00;99523.34;5028149;28;20166;-81
2022/11/17 00:56:43;;;;;;;10.38;8.10;;;;;;;6.50;100.00;99514.59;5047843;28;20058;-81
2022/11/17 00:59:13;;;;;;;10.60;8.48;;;;;;;6.50;100.00;99506.75;5026788;28;20080;-81
2022/11/17 01:01:42;;;;;;;10.63;9.52;;;;;;;6.48;100.00;99502.38;5026025;28;20369;-81
2022/11/17 01:04:12;;;;;;;14.82;13.20;;;;;;;6.49;100.00;99484.06;4987688;28;20162;-81
2022/11/17 01:06:46;;;;;;;12.65;9.35;;;;;;;6.44;100.00;99476.22;5007406;28;20072;-81
2022/11/17 01:09:18;;;;;;;13.25;9.10;;;;;;;6.43;100.00;99471.00;5011192;28;20064;-81
2022/11/17 01:11:48;;;;;;;12.57;9.93;;;;;;;6.45;100.00;99482.34;5002061;28;20046;-81
2022/11/17 01:14:20;;;;;;;8.82;7.63;;;;;;;6.42;100.00;99457.03;5013819;28;20038;-82
2022/11/17 01:16:48;;;;;;;10.57;8.38;;;;;;;6.41;100.00;99472.75;4999538;28;20267;-81
2022/11/17 01:19:18;;;;;;;12.88;9.23;;;;;;;6.41;100.00;99471.00;5018451;28;20041;-82
2022/11/17 01:21:46;;;;;;;9.50;8.52;;;;;;;6.42;100.00;99472.72;4995834;28;20049;-81
2022/11/17 01:24:16;;;;;;;8.70;7.75;;;;;;;6.42;100.00;99456.16;5004305;28;20042;-80
2022/11/17 01:26:45;;;;;;;9.07;7.73;;;;;;;6.41;100.00;99470.16;5023224;28;20041;-81
2022/11/17 01:29:17;;;;;;;10.40;8.52;;;;;;;6.36;100.00;99477.97;5024646;28;20041;-81
2022/11/17 01:31:50;;;;;;;13.30;8.43;;;;;;;6.36;100.00;99437.88;5023693;28;20053;-80
2022/11/17 01:34:19;;;;;;;10.88;8.52;;;;;;;6.37;100.00;99423.91;5011945;28;20042;-81
2022/11/17 01:39:34;;;;;;;9.73;8.10;;;;;;;6.35;100.00;99418.69;5014882;28;20530;-81
2022/11/17 01:42:10;;;;;;;9.93;8.50;;;;;;;6.36;100.00;99409.09;5022438;28;20037;-81
2022/11/17 01:45:00;;;;;;;7.93;7.03;;;;;;;6.35;100.00;99409.97;5032121;28;20348;-80
2022/11/17 01:47:32;;;;;;;9.35;6.68;;;;;;;6.35;100.00;99409.97;5026212;28;20050;-82
2022/11/17 01:50:24;;;;;;;12.25;7.43;;;;;;;6.37;100.00;99426.53;5026993;28;20056;-81
2022/11/17 01:52:59;;;;;;;10.52;7.68;;;;;;;6.36;100.00;99409.09;5028464;28;20057;-81
2022/11/17 01:55:42;;;;;;;16.30;11.98;;;;;;;6.38;100.00;99397.75;5026085;28;20052;-81
2022/11/17 01:58:18;;;;;;;12.98;10.27;;;;;;;6.36;100.00;99393.41;5005433;28;20030;-80
2022/11/17 02:00:46;;;;;;;16.50;14.10;;;;;;;6.36;100.00;99388.16;5023348;28;20057;-79
2022/11/17 02:03:16;;;;;;;16.63;12.70;;;;;;;6.37;100.00;99361.09;5021158;28;20522;-80
2022/11/17 02:05:59;;;;;;;12.32;10.40;;;;;;;6.37;100.00;99364.63;5017363;28;20248;-80
2022/11/17 02:08:31;;;;;;;12.35;9.77;;;;;;;6.40;100.00;99363.72;4997031;28;20165;-80
2022/11/17 02:11:07;;;;;;;14.55;8.75;;;;;;;6.42;100.00;99359.34;5026383;28;20045;-80
2022/11/17 02:13:38;;;;;;;14.93;9.90;;;;;;;6.43;100.00;99354.13;5018333;28;20137;-79
2022/11/17 02:16:14;;;;;;;17.52;13.95;;;;;;;6.44;100.00;99355.84;5038221;28;20042;-81
2022/11/17 02:18:45;;;;;;;15.55;12.57;;;;;;;6.42;100.00;99344.50;5026744;28;20037;-81
2022/11/17 02:21:38;;;;;;;17.27;12.95;;;;;;;6.40;100.00;99353.25;5008037;28;20034;-81
2022/11/17 02:24:37;;;;;;;14.32;10.35;;;;;;;6.43;100.00;99340.16;5017629;28;20045;-80
2022/11/17 02:27:48;;;;;;;11.30;8.15;;;;;;;6.45;100.00;99325.34;5032617;28;20268;-81
2022/11/17 02:30:19;;;;;;;13.30;9.40;;;;;;;6.47;100.00;99325.34;5007727;28;20044;-81
2022/11/17 02:32:57;;;;;;;10.82;8.85;;;;;;;6.46;100.00;99336.66;5028299;28;20046;-81
2022/11/17 02:35:26;;;;;;;9.13;8.20;;;;;;;6.48;100.00;99325.31;5024731;28;20037;-81
2022/11/17 02:38:14;;;;;;;10.85;8.30;;;;;;;6.48;100.00;99324.44;5029423;28;20036;-80
2022/11/17 02:40:49;;;;;;;9.70;8.45;;;;;;;6.48;100.00;99313.97;5025957;28;20061;-81
2022/11/17 02:46:15;;;;;;;8.68;7.00;;;;;;;6.48;100.00;99309.59;5023757;28;20037;-81
2022/11/17 02:48:51;;;;;;;11.82;9.05;;;;;;;6.48;100.00;99299.13;5025891;28;20077;-81
2022/11/17 02:51:22;;;;;;;10.75;9.38;;;;;;;6.48;100.00;99303.50;5031759;28;20057;-81
2022/11/17 02:53:55;;;;;;;10.50;8.93;;;;;;;6.48;100.00;99356.69;4996366;28;20056;-81
2022/11/17 02:56:24;;;;;;;12.25;8.95;;;;;;;6.47;100.00;99286.94;5031223;28;20049;-81
2022/11/17 02:58:58;;;;;;;11.38;10.20;;;;;;;6.47;100.00;99291.31;5024323;28;20049;-82
2022/11/17 03:01:37;;;;;;;12.07;10.85;;;;;;;6.48;100.00;99287.81;5022825;28;20053;-82
2022/11/17 03:04:19;;;;;;;14.82;12.15;;;;;;;6.47;100.00;99301.78;5024952;28;20056;-81
2022/11/17 03:07:17;;;;;;;12.05;10.73;;;;;;;6.44;100.00;99289.56;5005221;28;20045;-81
2022/11/17 03:10:03;;;;;;;10.52;8.85;;;;;;;6.41;100.00;99281.75;4989674;28;20262;-81
2022/11/17 03:12:54;;;;;;;9.85;8.25;;;;;;;6.38;100.00;99287.84;5015362;28;20053;-83
2022/11/17 03:15:49;;;;;;;10.68;9.73;;;;;;;6.38;100.00;99277.38;5017001;28;20508;-82
2022/11/17 03:18:29;;;;;;;10.75;9.10;;;;;;;6.37;100.00;99269.53;5021931;28;20054;-82
2022/11/17 03:21:10;;;;;;;12.88;9.55;;;;;;;6.37;100.00;99274.75;5027080;28;20061;-81
2022/11/17 03:23:48;;;;;;;8.82;7.93;;;;;;;6.34;100.00;99280.03;5014212;28;20053;-80
2022/11/17 03:26:24;;;;;;;9.88;8.95;;;;;;;6.32;100.00;99277.41;4992040;28;20053;-81
2022/11/17 03:28:55;;;;;;;9.35;8.45;;;;;;;6.30;100.00;99275.69;5033623;28;20052;-81
2022/11/17 03:31:27;;;;;;;10.50;9.48;;;;;;;6.28;100.00;99270.47;5034055;28;20056;-81
2022/11/17 03:33:58;;;;;;;8.60;7.80;;;;;;;6.27;100.00;99273.09;5029142;28;20046;-81
2022/11/17 03:36:34;;;;;;;14.95;8.90;;;;;;;6.25;100.00;99258.25;5005980;28;20503;-81
2022/11/17 03:39:11;;;;;;;11.20;8.93;;;;;;;6.25;100.00;99263.47;5015621;28;20034;-81
2022/11/17 03:41:44;;;;;;;12.57;10.38;;;;;;;6.25;100.00;99263.47;5005642;28;20052;-81
2022/11/17 03:44:15;;;;;;;16.52;10.48;;;;;;;6.25;100.00;99253.03;5017871;28;20523;-81
2022/11/17 03:46:46;;;;;;;10.25;9.25;;;;;;;6.27;100.00;99273.09;5020203;28;20061;-81
2022/11/17 03:49:36;;;;;;;11.13;10.02;;;;;;;6.25;100.00;99255.63;5025067;28;20050;-82
2022/11/17 03:52:05;;;;;;;11.77;9.93;;;;;;;6.22;100.00;99260.91;5029296;28;20046;-81
2022/11/17 03:54:36;;;;;;;9.57;8.68;;;;;;;6.20;100.00;99260.03;5001389;28;20053;-82
2022/11/17 03:57:28;;;;;;;9.50;8.55;;;;;;;6.14;100.00;99253.94;5009182;28;20507;-80
2022/11/17 04:00:06;;;;;;;10.70;8.70;;;;;;;6.11;100.00;99247.00;4984729;28;20467;-82
2022/11/17 04:02:46;;;;;;;9.80;8.80;;;;;;;6.07;100.00;99254.84;5023774;28;20057;-81
2022/11/17 04:05:16;;;;;;;8.90;7.78;;;;;;;6.04;100.00;99238.28;5013147;28;20037;-81
2022/11/17 04:07:46;;;;;;;12.48;9.93;;;;;;;6.01;100.00;99245.28;5009583;28;20049;-81
2022/11/17 04:10:18;;;;;;;13.30;10.15;;;;;;;5.99;100.00;99245.31;5016261;28;20048;-82
2022/11/17 04:18:22;;;;;;;11.82;10.57;;;;;;;5.93;100.00;99240.06;5014709;28;20046;-81
2022/11/17 04:20:56;;;;;;;11.25;10.05;;;;;;;5.88;100.00;99236.59;5015965;28;20333;-81
2022/11/17 04:23:24;;;;;;;17.23;14.00;;;;;;;5.86;100.00;99241.84;5040608;28;20060;-82
2022/11/17 04:28:45;;;;;;;13.20;11.40;;;;;;;5.80;100.00;99235.75;5022198;28;20139;-80
2022/11/17 04:31:22;;;;;;;13.35;11.38;;;;;;;5.76;100.00;99228.78;5032847;28;20049;-82
2022/11/17 04:34:08;;;;;;;15.75;14.00;;;;;;;5.73;100.00;99234.91;5019599;28;20057;-82
2022/11/17 04:36:44;;;;;;;21.38;18.08;;;;;;;5.72;100.00;99206.16;5014646;28;20061;-81
2022/11/17 04:39:14;;;;;;;20.98;15.77;;;;;;;5.68;100.00;99202.69;5034833;28;20045;-81
2022/11/17 04:42:01;;;;;;;16.30;14.18;;;;;;;5.66;100.00;99227.94;4969121;28;20549;-83
2022/11/17 04:44:32;;;;;;;22.42;18.63;;;;;;;5.63;100.00;99196.59;5023246;28;20515;-81
2022/11/17 04:47:02;;;;;;;24.08;19.20;;;;;;;5.62;100.00;99180.06;5004596;28;20049;-80
2022/11/17 04:49:32;;;;;;;22.90;18.17;;;;;;;5.58;100.00;99167.00;5023596;28;20041;-80
2022/11/17 04:52:00;;;;;;;21.37;17.53;;;;;;;5.55;100.00;99160.03;5024740;28;20050;-83
2022/11/17 04:54:29;;;;;;;23.73;17.90;;;;;;;5.55;100.00;99156.56;5015171;28;20045;-83
2022/11/17 04:56:57;;;;;;;16.67;14.88;;;;;;;5.53;100.00;99166.16;5006430;28;20052;-81
2022/11/17 04:59:26;;;;;;;17.70;11.05;;;;;;;5.53;100.00;99158.31;5026115;28;20018;-81
2022/11/17 05:01:54;;;;;;;11.27;9.75;;;;;;;5.51;100.00;99154.84;5012397;28;20048;-82
2022/11/17 05:07:16;;;;;;;18.05;9.73;;;;;;;5.48;100.00;99176.59;5013519;28;20495;-82
2022/11/17 05:09:45;;;;;;;11.88;10.50;;;;;;;5.48;100.00;99150.47;5006694;28;20056;-81
2022/11/17 05:15:00;;;;;;;13.52;8.80;;;;;;;5.45;100.00;99151.38;5023736;28;20033;-81
2022/11/17 05:17:29;;;;;;;12.65;8.98;;;;;;;5.44;100.00;99138.31;5024913;28;20060;-81
2022/11/17 05:19:57;;;;;;;12.90;8.73;;;;;;;5.45;100.00;99129.59;5010984;28;20495;-84
2022/11/17 05:25:13;;;;;;;10.52;7.43;;;;;;;5.41;100.00;99115.69;5022332;28;20253;-82
2022/11/17 05:27:41;;;;;;;7.85;7.05;;;;;;;5.41;100.00;99102.63;5025570;28;20045;-81
2022/11/17 05:30:10;;;;;;;8.18;6.35;;;;;;;5.41;100.00;99135.72;5009613;28;20057;-82
2022/11/17 05:32:42;;;;;;;9.30;6.95;;;;;;;5.39;100.00;99116.56;5011489;28;20057;-82
2022/11/17 05:35:10;;;;;;;10.80;7.00;;;;;;;5.38;100.00;99101.75;5025338;28;20046;-82
2022/11/17 05:37:38;;;;;;;8.32;6.78;;;;;;;5.37;100.00;99100.91;5015127;28;20034;-82
2022/11/17 05:40:08;;;;;;;10.10;7.70;;;;;;;5.37;100.00;99116.56;5015844;28;20053;-83
2022/11/17 05:42:37;;;;;;;8.43;7.15;;;;;;;5.36;100.00;99114.81;5046237;28;20403;-81
2022/11/17 05:45:05;;;;;;;14.02;7.88;;;;;;;5.38;100.00;99114.81;4990264;28;20053;-82
2022/11/17 05:47:34;;;;;;;10.57;7.43;;;;;;;5.40;100.00;99113.94;5017134;28;20046;-82
2022/11/17 05:50:06;;;;;;;11.60;9.65;;;;;;;5.39;100.00;99112.22;5006788;28;20048;-82
2022/11/17 05:52:34;;;;;;;10.82;8.02;;;;;;;5.39;100.00;99125.28;5008227;28;20038;-82
2022/11/17 05:55:04;;;;;;;8.23;6.97;;;;;;;5.38;100.00;99071.28;5023152;28;20384;-82
2022/11/17 05:57:33;;;;;;;11.95;8.45;;;;;;;5.37;100.00;99095.69;5016108;28;20045;-82
2022/11/17 06:00:03;;;;;;;9.73;7.55;;;;;;;5.34;100.00;99074.78;4993090;28;20057;-82
2022/11/17 06:02:45;;;;;;;6.82;5.80;;;;;;;5.34;100.00;99095.69;5031842;28;20041;-82
2022/11/17 06:05:14;;;;;;;12.00;7.57;;;;;;;5.35;100.00;99084.38;5026283;28;20608;-81
2022/11/17 06:07:48;;;;;;;12.30;8.68;;;;;;;5.36;100.00;99090.44;5029455;28;20041;-81
2022/11/17 06:10:16;;;;;;;12.85;8.45;;;;;;;5.34;100.00;99080.00;5021689;28;20053;-81
2022/11/17 06:12:45;;;;;;;14.57;8.07;;;;;;;5.35;100.00;99078.25;5019153;28;20033;-81
2022/11/17 06:15:18;;;;;;;11.25;7.72;;;;;;;5.33;100.00;99052.16;5028311;28;20045;-82
2022/11/17 06:17:56;;;;;;;11.02;8.70;;;;;;;5.35;100.00;99060.88;5003169;28;20064;-82
2022/11/17 06:20:29;;;;;;;14.43;7.50;;;;;;;5.34;100.00;99063.47;5004317;28;20570;-82
2022/11/17 06:23:01;;;;;;;11.23;8.90;;;;;;;5.33;100.00;99072.16;5016261;28;20049;-82
2022/11/17 06:25:35;;;;;;;10.48;8.10;;;;;;;5.32;100.00;99057.38;5009811;28;20057;-81
2022/11/17 06:28:08;;;;;;;10.82;8.20;;;;;;;5.31;100.00;99074.78;5022101;28;20131;-82
2022/11/17 06:30:38;;;;;;;11.40;7.78;;;;;;;5.31;100.00;99042.56;5030083;28;20510;-82
2022/11/17 06:33:12;;;;;;;7.20;6.25;;;;;;;5.29;100.00;99079.16;4982057;28;20049;-82
2022/11/17 06:35:43;;;;;;;13.60;6.93;;;;;;;5.29;100.00;99076.53;4997382;28;20069;-82
2022/11/17 06:38:11;;;;;;;12.63;8.55;;;;;;;5.31;100.00;99055.63;5003137;28;20426;-82
2022/11/17 06:40:41;;;;;;;11.40;8.35;;;;;;;5.31;100.00;99084.38;5000213;28;20042;-82
2022/11/17 06:43:11;;;;;;;9.50;7.15;;;;;;;5.30;100.00;99062.63;4988659;28;20084;-82
2022/11/17 06:45:45;;;;;;;13.18;9.13;;;;;;;5.30;100.00;99057.38;4993886;28;20061;-82
2022/11/17 06:48:16;;;;;;;19.45;9.07;;;;;;;5.28;100.00;99080.03;4982266;28;22415;-82
2022/11/17 06:50:47;;;;;;;12.02;9.32;;;;;;;5.26;100.00;99077.41;5031312;28;20037;-83
2022/11/17 06:53:15;;;;;;;;;;;;;;;5.26;100.00;99068.72;5007541;28;20266;-82
2022/11/17 06:55:48;;;;;;;16.15;9.18;;;;;;;5.23;100.00;99066.13;5021709;28;19921;-83
2022/11/17 06:58:17;;;;;;;15.60;9.85;;;;;;;5.21;100.00;99068.72;5021136;28;20053;-83
2022/11/17 07:00:45;;;;;;;13.85;9.43;;;;;;;5.21;100.00;99083.53;5012969;28;20495;-82
2022/11/17 07:03:14;;;;;;;21.05;11.13;;;;;;;5.18;100.00;99068.75;5013445;28;20064;-82
2022/11/17 07:05:43;;;;;;;13.70;9.85;;;;;;;5.16;100.00;99054.84;5016535;28;20056;-81
2022/11/17 07:08:11;;;;;;;21.45;11.10;;;;;;;5.17;100.00;99058.31;5029435;28;20233;-82
2022/11/17 07:10:40;;;;;;;14.02;9.98;;;;;;;5.16;100.00;99075.72;4986176;28;20514;-81
2022/11/17 07:13:16;;;;;;;15.40;8.80;;;;;;;5.14;100.00;99034.81;4991510;28;20038;-81
2022/11/17 07:15:45;;;;;;;15.90;9.52;;;;;;;5.12;100.00;99050.47;4989448;28;20403;-83
2022/11/17 07:18:20;;;;;;;14.38;9.05;;;;;;;5.11;100.00;99045.28;4985142;28;20052;-82
2022/11/17 07:20:49;;;;;;;13.57;8.93;;;;;;;5.10;100.00;99061.81;5010588;28;20038;-82
2022/11/17 07:23:20;;;;;;;14.75;9.60;;;;;;;5.08;100.00;99040.94;5002626;28;20037;-81
2022/11/17 07:25:51;;;;;;;12.68;8.20;;;;;;;5.07;100.00;99041.81;5023608;28;20045;-81
2022/11/17 07:28:20;;;;;;;14.05;8.80;;;;;;;5.04;100.00;99039.19;5024661;28;20087;-81
2022/11/17 07:30:48;;;;;;;14.70;8.63;;;;;;;5.02;100.00;99044.44;5033176;28;20495;-81
2022/11/17 07:33:17;;;;;;;11.93;7.57;;;;;;;5.00;100.00;99042.69;5025935;28;20052;-81
2022/11/17 07:35:46;;;;;;;9.80;7.50;;;;;;;4.99;100.00;99047.06;4986862;28;20057;-82
2022/11/17 07:38:17;;;;;;;12.88;8.43;;;;;;;4.98;100.00;99040.09;5015240;28;20241;-82
2022/11/17 07:40:49;;;;;;;13.02;7.75;;;;;;;4.97;100.00;99063.59;5010491;28;20046;-82
2022/11/17 07:43:17;;;;;;;13.55;9.93;;;;;;;4.97;100.00;99035.75;5018798;28;20045;-82
2022/11/17 07:45:46;;;;;;;14.38;9.48;;;;;;;4.96;100.00;99044.44;5016052;28;20057;-81
2022/11/17 07:48:14;;;;;;;17.40;10.20;;;;;;;4.99;100.00;99062.72;5015473;28;20464;-81
2022/11/17 07:50:44;;;;;;;13.77;7.88;;;;;;;4.97;100.00;99051.44;4976228;28;20557;-82
2022/11/17 07:53:12;;;;;;;12.50;8.85;;;;;;;4.94;100.00;99048.81;5018867;28;20251;-81
2022/11/17 07:55:45;;;;;;;12.05;8.23;;;;;;;4.95;100.00;99029.66;5016898;28;20155;-81
2022/11/17 07:58:14;;;;;;;11.90;9.13;;;;;;;4.96;100.00;99036.63;5016719;28;20044;-81
2022/11/17 08:00:42;;;;;;;13.10;9.13;;;;;;;4.95;100.00;99040.09;4983256;28;20045;-81
2022/11/17 08:03:12;;;;;;;9.25;7.75;;;;;;;4.95;100.00;99049.66;5022862;28;20503;-81
2022/11/17 08:05:41;;;;;;;8.38;7.50;;;;;;;4.95;100.00;99045.31;5007727;28;20068;-80
2022/11/17 08:08:12;;;;;;;11.02;8.80;;;;;;;4.98;100.00;99044.44;5006430;28;20041;-81
2022/11/17 08:10:41;;;;;;;9.15;7.18;;;;;;;4.97;100.00;99054.03;5011393;28;20061;-81
2022/11/17 08:13:11;;;;;;;8.73;7.65;;;;;;;4.97;100.00;99058.38;5013452;28;20045;-81
2022/11/17 08:15:40;;;;;;;9.43;8.00;;;;;;;4.98;100.00;99052.28;5003156;28;20050;-83
2022/11/17 08:18:09;;;;;;;9.10;7.68;;;;;;;4.98;100.00;99054.91;5020084;28;20038;-82
2022/11/17 08:20:37;;;;;;;7.75;6.95;;;;;;;4.98;100.00;99062.72;5014306;28;20042;-82
2022/11/17 08:23:06;;;;;;;8.52;7.30;;;;;;;4.98;100.00;99068.81;5009333;28;20042;-81
2022/11/17 08:25:35;;;;;;;10.95;8.98;;;;;;;4.99;100.00;99064.44;5022002;28;20042;-82
2022/11/17 08:28:05;;;;;;;10.95;9.10;;;;;;;5.02;100.00;99073.13;5015325;28;20053;-81
2022/11/17 08:30:34;;;;;;;6.88;6.07;;;;;;;5.00;100.00;99058.38;5016813;28;20049;-81
2022/11/17 08:33:03;;;;;;;8.63;7.38;;;;;;;4.99;100.00;99065.34;4983244;28;20056;-80
2022/11/17 08:35:32;;;;;;;8.02;6.72;;;;;;;5.00;100.00;99068.81;5010215;28;20530;-81
2022/11/17 08:38:04;;;;;;;6.47;5.78;;;;;;;5.01;100.00;99066.19;4992902;28;20046;-81
2022/11/17 08:40:33;;;;;;;6.25;5.65;;;;;;;5.02;100.00;99057.47;5019378;28;20056;-81
2022/11/17 08:43:01;;;;;;;7.55;6.82;;;;;;;5.03;100.00;99054.00;4986288;28;20045;-80
2022/11/17 08:45:30;;;;;;;7.63;6.82;;;;;;;5.04;100.00;99070.53;5018757;28;20503;-81
2022/11/17 08:47:59;;;;;;;7.78;6.97;;;;;;;5.06;100.00;99053.13;5016999;28;22136;-81
2022/11/17 08:50:28;;;;;;;7.68;6.57;;;;;;;5.07;100.00;99052.25;5005766;28;20080;-80
2022/11/17 08:52:56;;;;;;;7.38;6.68;;;;;;;5.06;100.00;99053.13;4996705;28;20042;-81
2022/11/17 08:55:25;;;;;;;8.60;7.47;;;;;;;5.09;100.00;99058.34;5002552;28;20064;-81
2022/11/17 08:57:57;;;;;;;10.18;7.60;;;;;;;5.07;100.00;99053.13;5026074;28;20654;-81
2022/11/17 09:00:25;;;;;;;9.95;8.23;;;;;;;5.09;100.00;99066.19;5014828;28;20038;-80
2022/11/17 09:02:54;;;;;;;7.90;7.15;;;;;;;5.04;100.00;99047.91;5003891;28;20042;-80
2022/11/17 09:05:23;;;;;;;9.43;7.57;;;;;;;5.08;100.00;99057.47;5002440;28;20519;-81
2022/11/17 09:07:52;;;;;;;9.82;8.05;;;;;;;5.06;100.00;99058.34;4984367;28;20041;-80
2022/11/17 09:10:21;;;;;;;10.00;7.88;;;;;;;5.06;100.00;99051.38;5003103;28;20056;-80
2022/11/17 09:12:49;;;;;;;9.68;8.02;;;;;;;5.06;100.00;99056.59;5029654;28;20515;-80
2022/11/17 09:15:18;;;;;;;9.68;8.48;;;;;;;5.05;100.00;99036.59;5015001;28;20056;-81
2022/11/17 09:17:46;;;;;;;11.80;9.32;;;;;;;5.05;100.00;99049.66;4996910;28;20053;-81
2022/11/17 09:20:17;;;;;;;12.13;9.00;;;;;;;5.05;100.00;99047.03;5021687;28;20038;-81
2022/11/17 09:22:45;;;;;;;7.18;6.15;;;;;;;5.05;100.00;99047.03;5010538;28;20398;-81
2022/11/17 09:25:14;;;;;;;10.82;8.38;;;;;;;5.05;100.00;99064.44;4997516;28;20140;-81
2022/11/17 09:27:42;;;;;;;12.10;8.88;;;;;;;5.06;100.00;99060.94;5032421;28;20056;-81
2022/11/17 09:30:13;;;;;;;9.73;8.18;;;;;;;5.05;100.00;99062.69;5012374;28;20049;-81
2022/11/17 09:32:42;;;;;;;9.43;8.45;;;;;;;5.08;100.00;99052.25;5010521;28;20042;-81
2022/11/17 09:35:10;;;;;;;8.68;7.38;;;;;;;5.07;100.00;99047.91;5020771;28;20057;-80
2022/11/17 09:37:39;;;;;;;9.70;7.90;;;;;;;5.06;100.00;99064.41;5028943;28;20053;-81
2022/11/17 09:40:14;;;;;;;8.48;7.15;;;;;;;5.05;100.00;99067.94;4977013;28;20454;-80
2022/11/17 09:42:42;;;;;;;10.60;7.75;;;;;;;5.05;100.00;99060.09;5026814;28;20048;-81
2022/11/17 09:45:21;;;;;;;8.23;6.40;;;;;;;5.03;100.00;99068.81;4994008;28;20046;-80
2022/11/17 09:47:59;;;;;;;11.35;8.30;;;;;;;5.04;100.00;99054.88;4994551;28;20038;-80
2022/11/17 09:50:49;;;;;;;10.35;7.90;;;;;;;5.02;100.00;99075.75;5006248;28;20053;-81
2022/11/17 09:53:20;;;;;;;7.57;6.72;;;;;;;5.00;100.00;99072.28;5026991;28;20053;-80
2022/11/17 09:56:11;;;;;;;9.63;7.18;;;;;;;5.00;100.00;99063.59;4993308;28;20041;-80
2022/11/17 09:58:54;;;;;;;10.20;7.80;;;;;;;4.99;100.00;99067.94;5026187;28;20037;-81
2022/11/17 10:01:27;;;;;;;12.63;7.25;;;;;;;4.98;100.00;99065.34;5015666;28;20487;-80
2022/11/17 10:03:58;;;;;;;8.82;7.35;;;;;;;4.97;100.00;99061.88;5010139;28;20037;-80
2022/11/17 10:06:30;;;;;;;7.82;6.85;;;;;;;4.98;100.00;99066.19;5015550;28;20407;-79
2022/11/17 10:09:17;;;;;;;9.07;7.10;;;;;;;4.99;100.00;99059.22;5019773;28;20045;-82
2022/11/17 10:11:58;;;;;;;7.85;7.05;;;;;;;4.99;100.00;99056.63;5014986;28;20065;-82
2022/11/17 10:14:28;;;;;;;8.75;7.13;;;;;;;4.98;100.00;99062.72;5016490;28;20042;-81
2022/11/17 10:16:58;;;;;;;9.15;7.75;;;;;;;4.99;100.00;99081.00;5026041;28;20045;-80
2022/11/17 10:19:29;;;;;;;10.20;7.73;;;;;;;4.97;100.00;99087.06;5008032;28;20550;-80
2022/11/17 10:22:01;;;;;;;10.23;7.18;;;;;;;4.97;100.00;99069.69;5017924;28;20037;-80
2022/11/17 10:24:38;;;;;;;8.35;6.57;;;;;;;4.96;100.00;99046.19;5000254;28;20049;-79
2022/11/17 10:27:20;;;;;;;6.25;5.65;;;;;;;4.94;100.00;99054.03;4979047;28;20056;-82
2022/11/17 10:30:13;;;;;;;7.88;6.75;;;;;;;4.96;100.00;99047.06;5019609;28;20033;-79
2022/11/17 10:32:52;;;;;;;8.35;6.00;;;;;;;4.97;100.00;99066.19;4997834;28;20202;-80
2022/11/17 10:35:29;;;;;;;6.78;6.05;;;;;;;5.00;100.00;99069.66;5013859;28;20506;-80
2022/11/17 10:38:17;;;;;;;8.82;7.40;;;;;;;5.03;100.00;99061.84;5008860;28;20041;-79
2022/11/17 10:40:51;;;;;;;11.20;8.43;;;;;;;5.02;100.00;99054.00;4994819;28;20064;-79
2022/11/17 10:43:35;;;;;;;10.60;7.63;;;;;;;5.02;100.00;99067.91;5008033;28;20538;-79
2022/11/17 10:46:15;;;;;;;8.48;7.63;;;;;;;5.00;100.00;99072.28;5016371;28;20495;-80
2022/11/17 10:48:56;;;;;;;8.38;6.55;;;;;;;4.98;100.00;99066.19;5015687;28;20061;-79
2022/11/17 10:51:25;;;;;;;;;;;;;;;4.95;100.00;99065.34;5008810;28;20038;-81
2022/11/17 10:54:16;;;;;;;8.98;7.10;;;;;;;4.92;100.00;99075.81;5021871;28;19929;-81
2022/11/17 10:56:53;;;;;;;9.83;8.40;;;;;;;4.92;100.00;99075.81;5002322;28;20041;-80
2022/11/17 10:59:30;;;;;;;10.43;8.30;;;;;;;4.89;100.00;99084.50;5030573;28;20045;-80
2022/11/17 11:02:29;;;;;;;12.77;9.88;;;;;;;4.90;100.00;99099.28;5005201;28;20057;-80
2022/11/17 11:05:07;;;;;;;11.40;9.00;;;;;;;4.89;100.00;99077.50;5029700;28;20029;-83
2022/11/17 11:07:36;;;;;;;12.07;10.73;;;;;;;4.89;100.00;99081.88;5029198;28;20049;-83
2022/11/17 11:10:15;;;;;;;11.83;9.00;;;;;;;4.90;100.00;99091.47;5038442;28;20503;-84
2022/11/17 11:12:51;;;;;;;11.18;9.20;;;;;;;4.89;100.00;99094.94;5002352;28;20064;-83
2022/11/17 11:15:23;;;;;;;10.57;9.10;;;;;;;4.89;100.00;99093.19;5029663;28;20050;-84
2022/11/17 11:17:51;;;;;;;12.63;10.70;;;;;;;4.93;100.00;99077.53;4988330;28;20054;-83
2022/11/17 11:20:34;;;;;;;10.05;8.95;;;;;;;4.98;100.00;99091.44;4962084;28;20061;-84
2022/11/17 11:23:16;;;;;;;12.10;9.85;;;;;;;4.99;100.00;99093.16;5007404;28;20562;-84
2022/11/17 11:26:16;;;;;;;11.93;10.55;;;;;;;5.00;100.00;99116.66;5013027;28;20038;-85
2022/11/17 11:28:53;;;;;;;11.15;9.95;;;;;;;4.98;100.00;99102.75;4966098;28;20054;-84
2022/11/17 11:31:40;;;;;;;9.30;8.25;;;;;;;4.96;100.00;99111.47;5009020;28;20038;-86
2022/11/17 11:34:37;;;;;;;12.65;9.25;;;;;;;4.95;100.00;99083.59;4971522;28;20049;-84
2022/11/17 11:37:10;;;;;;;13.13;8.25;;;;;;;4.94;100.00;99095.78;4999778;28;20038;-85
2022/11/17 11:40:00;;;;;;;12.50;10.05;;;;;;;4.92;100.00;99121.03;5012520;28;20072;-84
2022/11/17 11:42:49;;;;;;;10.43;8.63;;;;;;;4.92;100.00;99104.50;4972893;28;20081;-86
2022/11/17 11:45:49;;;;;;;12.13;10.07;;;;;;;4.93;100.00;99101.88;5007967;28;20038;-84
2022/11/17 11:48:25;;;;;;;10.75;9.63;;;;;;;4.93;100.00;99101.88;5007265;28;20050;-84
2022/11/17 11:51:00;;;;;;;9.55;8.07;;;;;;;4.94;100.00;99101.00;5021964;28;20050;-85
2022/11/17 11:53:55;;;;;;;8.35;6.40;;;;;;;4.93;100.00;99096.66;5004981;28;20052;-85
2022/11/17 11:56:38;;;;;;;11.38;8.95;;;;;;;4.95;100.00;99087.06;5024361;28;20415;-85
2022/11/17 11:59:48;;;;;;;10.80;8.77;;;;;;;4.93;100.00;99094.03;5021031;28;20076;-84
2022/11/17 12:02:43;;;;;;;9.45;8.48;;;;;;;4.95;100.00;99099.25;5029311;28;20057;-85
2022/11/17 12:05:22;;;;;;;10.75;8.57;;;;;;;4.97;100.00;99100.13;5026525;28;20034;-85
2022/11/17 12:08:31;;;;;;;10.07;8.77;;;;;;;4.99;100.00;99090.56;5009777;28;20063;-85
2022/11/17 12:11:59;;;;;;;8.82;7.90;;;;;;;5.01;100.00;99102.75;5019576;28;20042;-85
2022/11/17 12:13:56;;;;;;;8.07;7.10;;;;;;;5.01;100.00;99118.41;5028059;28;20050;-84
2022/11/17 12:16:32;;;;;;;10.93;8.65;;;;;;;5.03;100.00;99103.63;5043980;28;20038;-84
2022/11/17 12:19:01;;;;;;;9.27;8.27;;;;;;;5.04;100.00;99097.50;5030010;28;20041;-85
2022/11/17 12:21:34;;;;;;;8.50;7.65;;;;;;;5.07;100.00;99107.94;5001591;28;20053;-85
2022/11/17 12:24:32;;;;;;;10.35;9.35;;;;;;;5.12;100.00;99104.44;5036970;28;20049;-85
2022/11/17 12:27:51;;;;;;;8.80;7.50;;;;;;;5.16;100.00;99111.41;5039695;28;20048;-84
2022/11/17 12:30:30;;;;;;;9.05;7.88;;;;;;;5.20;100.00;99115.75;5007622;28;20058;-86